Time;durP1;ratioP1;P1;durP2;ratioP2;P2;SDS_P1;SDS_P2;PMS_P1;PMS_P2;Temp;Humidity;BMP_temperature;BMP_pressure;BME280_temperature;BME280_humidity;BME280_pressure;Samples;Min_cycle;Max_cycle;Signal;HPM_P1;HPM_P2
2021/05/11 00:00:24;;;;;;;;;;;23.40;53.10;;;;;;5014466;28;20308;-68
2021/05/11 00:02:49;;;;;;;;;;;23.40;53.00;;;;;;5013477;28;20039;-68
2021/05/11 00:05:15;;;;;;;;;;;23.40;53.00;;;;;;5014141;28;19921;-68
2021/05/11 00:07:41;;;;;;;;;;;23.40;53.00;;;;;;5014886;28;19948;-67
2021/05/11 00:10:06;;;;;;;;;;;23.40;53.10;;;;;;5014160;28;19996;-67
2021/05/11 00:12:32;;;;;;;;;;;23.40;53.00;;;;;;5013904;28;19925;-68
2021/05/11 00:14:57;;;;;;;;;;;23.40;53.00;;;;;;4996087;28;20280;-68
2021/05/11 00:17:23;;;;;;;;;;;23.40;53.00;;;;;;5016364;28;19917;-68
2021/05/11 00:19:48;;;;;;;;;;;23.40;52.90;;;;;;5016721;28;20239;-68
2021/05/11 00:22:14;;;;;;;;;;;23.40;53.00;;;;;;5012017;28;19928;-68
2021/05/11 00:24:39;;;;;;;;;;;23.40;52.90;;;;;;5013815;28;19924;-68
2021/05/11 00:27:05;;;;;;;;;;;23.40;53.00;;;;;;5014179;28;20347;-68
2021/05/11 00:29:30;;;;;;;;;;;23.40;52.90;;;;;;5011502;28;20000;-68
2021/05/11 00:31:56;;;;;;;;;;;23.50;53.00;;;;;;4996591;28;19917;-68
2021/05/11 00:34:21;;;;;;;;;;;23.40;52.90;;;;;;5016260;28;19928;-68
2021/05/11 00:36:46;;;;;;;;;;;23.50;53.00;;;;;;5016664;28;20345;-68
2021/05/11 00:39:12;;;;;;;;;;;23.40;53.00;;;;;;5012150;28;19952;-68
2021/05/11 00:41:37;;;;;;;;;;;23.50;53.00;;;;;;5012989;28;19929;-68
2021/05/11 00:44:03;;;;;;;;;;;23.40;52.90;;;;;;5013776;28;20299;-68
2021/05/11 00:46:30;;;;;;;;;;;23.50;53.00;;;;;;4998948;28;19917;-68
2021/05/11 00:48:56;;;;;;;;;;;23.50;52.90;;;;;;5009151;28;19929;-68
2021/05/11 00:51:21;;;;;;;;;;;23.50;53.00;;;;;;5015810;28;19923;-68
2021/05/11 00:53:47;;;;;;;;;;;23.50;53.00;;;;;;5016129;28;20361;-69
2021/05/11 00:56:13;;;;;;;;;;;23.40;52.90;;;;;;5012977;28;19960;-68
2021/05/11 00:58:38;;;;;;;;;;;23.40;52.90;;;;;;5009691;28;19984;-68
2021/05/11 01:01:04;;;;;;;;;;;23.40;52.80;;;;;;5020980;28;19929;-69
2021/05/11 01:03:29;;;;;;;;;;;23.40;52.90;;;;;;5012431;28;19972;-69
2021/05/11 01:05:55;;;;;;;;;;;23.50;52.90;;;;;;5020271;28;19948;-69
2021/05/11 01:08:20;;;;;;;;;;;23.50;52.90;;;;;;5012472;28;19929;-68
2021/05/11 01:10:46;;;;;;;;;;;23.50;52.90;;;;;;5012928;28;19944;-67
2021/05/11 01:13:11;;;;;;;;;;;23.50;52.90;;;;;;5018886;28;20326;-67
2021/05/11 01:15:39;;;;;;;;;;;23.40;52.80;;;;;;5013896;28;19921;-68
2021/05/11 01:18:14;;;;;;;;;;;23.40;52.80;;;;;;5015086;28;19939;-67
2021/05/11 01:20:43;;;;;;;;;;;23.40;52.80;;;;;;5010580;28;20411;-68
2021/05/11 01:23:50;;;;;;;;;;;23.40;52.80;;;;;;5013216;28;19929;-68
2021/05/11 01:26:12;;;;;;;;;;;23.40;52.80;;;;;;5013389;28;19952;-67
2021/05/11 01:47:50;;;;;;;;;;;23.40;52.80;;;;;;4972448;28;19917;-68
2021/05/11 01:50:21;;;;;;;;;;;23.40;52.80;;;;;;5012852;28;19925;-68
2021/05/11 01:55:36;;;;;;;;;;;23.40;52.90;;;;;;5015438;28;19939;-68
2021/05/11 01:58:39;;;;;;;;;;;23.40;52.80;;;;;;5011416;28;20329;-68
2021/05/11 02:25:02;;;;;;;;;;;23.40;52.70;;;;;;5014271;28;20014;-68
2021/05/11 02:27:27;;;;;;;;;;;23.40;52.90;;;;;;5015574;28;19940;-68
2021/05/11 02:29:53;;;;;;;;;;;23.40;52.80;;;;;;5016042;28;20396;-68
2021/05/11 02:32:19;;;;;;;;;;;23.40;52.70;;;;;;5015962;28;19918;-68
2021/05/11 02:34:45;;;;;;;;;;;23.40;52.70;;;;;;5022091;28;19917;-69
2021/05/11 02:37:10;;;;;;;;;;;23.40;52.80;;;;;;5022168;28;20183;-69
2021/05/11 02:39:37;;;;;;;;;;;23.40;52.70;;;;;;5015111;28;19930;-66
2021/05/11 02:42:03;;;;;;;;;;;23.40;52.70;;;;;;5019147;28;19921;-68
2021/05/11 02:44:36;;;;;;;;;;;23.40;52.70;;;;;;5019281;28;19953;-68
2021/05/11 02:47:01;;;;;;;;;;;23.40;52.70;;;;;;5018092;28;19948;-68
2021/05/11 02:49:27;;;;;;;;;;;23.40;52.70;;;;;;5015230;28;19917;-68
2021/05/11 02:51:53;;;;;;;;;;;23.40;52.80;;;;;;5015409;28;19928;-68
2021/05/11 02:54:18;;;;;;;;;;;23.40;52.70;;;;;;5015744;28;20408;-68
2021/05/11 02:56:44;;;;;;;;;;;23.40;52.80;;;;;;5022059;28;20373;-68
2021/05/11 02:59:09;;;;;;;;;;;23.40;52.70;;;;;;5017363;28;19936;-63
2021/05/11 03:01:35;;;;;;;;;;;23.40;52.70;;;;;;5030869;28;20350;-68
2021/05/11 03:04:00;;;;;;;;;;;23.40;52.80;;;;;;5025255;28;19924;-67
2021/05/11 03:06:26;;;;;;;;;;;23.40;53.40;;;;;;5038653;28;19921;-67
2021/05/11 03:08:51;;;;;;;;;;;23.40;52.70;;;;;;5028362;28;19925;-67
2021/05/11 03:11:17;;;;;;;;;;;23.40;52.70;;;;;;5025972;28;19999;-68
2021/05/11 03:13:42;;;;;;;;;;;23.40;52.70;;;;;;5027473;28;20379;-64
2021/05/11 03:16:08;;;;;;;;;;;23.40;52.80;;;;;;5039623;28;20180;-67
2021/05/11 03:18:33;;;;;;;;;;;23.40;52.90;;;;;;5020572;28;20365;-68
2021/05/11 03:20:58;;;;;;;;;;;23.40;53.30;;;;;;5028312;28;19917;-68
2021/05/11 03:23:24;;;;;;;;;;;23.40;52.80;;;;;;5034628;28;19932;-68
2021/05/11 03:25:49;;;;;;;;;;;23.40;52.80;;;;;;5034341;28;19920;-68
2021/05/11 03:28:15;;;;;;;;;;;23.40;52.80;;;;;;5017272;28;19922;-68
2021/05/11 03:30:41;;;;;;;;;;;23.40;52.80;;;;;;5029598;28;19947;-68
2021/05/11 03:33:06;;;;;;;;;;;23.40;52.90;;;;;;5040153;28;19920;-67
2021/05/11 03:35:32;;;;;;;;;;;23.40;52.90;;;;;;5024203;28;19918;-67
2021/05/11 03:37:57;;;;;;;;;;;23.40;52.70;;;;;;5021655;28;19921;-68
2021/05/11 03:40:23;;;;;;;;;;;23.40;52.80;;;;;;5024363;28;19971;-67
2021/05/11 03:42:54;;;;;;;;;;;23.40;52.80;;;;;;5038428;28;20303;-68
2021/05/11 03:45:24;;;;;;;;;;;23.40;52.80;;;;;;5018616;28;20038;-67
2021/05/11 03:47:52;;;;;;;;;;;23.40;52.70;;;;;;5031117;28;20000;-67
2021/05/11 03:50:17;;;;;;;;;;;23.40;52.70;;;;;;5028672;28;19963;-68
2021/05/11 03:52:43;;;;;;;;;;;23.40;52.70;;;;;;5028600;28;19917;-68
2021/05/11 03:55:08;;;;;;;;;;;23.40;52.80;;;;;;5017558;28;19925;-68
2021/05/11 03:57:34;;;;;;;;;;;23.40;52.70;;;;;;5024336;28;20011;-67
2021/05/11 03:59:59;;;;;;;;;;;23.40;52.70;;;;;;5031856;28;19917;-67
2021/05/11 04:02:25;;;;;;;;;;;23.40;52.70;;;;;;5024570;28;19921;-64
2021/05/11 04:04:50;;;;;;;;;;;23.40;52.70;;;;;;5013772;28;19921;-67
2021/05/11 04:07:16;;;;;;;;;;;23.40;52.70;;;;;;5007878;28;20398;-68
2021/05/11 04:09:46;;;;;;;;;;;23.40;52.80;;;;;;5008448;28;20067;-68
2021/05/11 04:12:32;;;;;;;;;;;23.40;52.70;;;;;;5016514;28;19932;-68
2021/05/11 04:17:44;;;;;;;;;;;23.40;52.70;;;;;;5021620;28;20081;-68
2021/05/11 04:20:10;;;;;;;;;;;23.40;52.70;;;;;;5018269;28;20459;-68
2021/05/11 04:22:35;;;;;;;;;;;23.40;52.60;;;;;;5027437;28;19927;-68
2021/05/11 04:25:01;;;;;;;;;;;23.40;52.70;;;;;;5005408;28;19921;-68
2021/05/11 04:27:26;;;;;;;;;;;23.40;52.70;;;;;;5025604;28;19921;-67
2021/05/11 04:29:56;;;;;;;;;;;23.40;52.60;;;;;;5028246;28;19947;-67
2021/05/11 04:32:22;;;;;;;;;;;23.40;52.60;;;;;;5023369;28;19924;-67
2021/05/11 04:34:47;;;;;;;;;;;23.40;52.50;;;;;;5024295;28;19929;-66
2021/05/11 04:37:13;;;;;;;;;;;23.40;52.30;;;;;;5026305;28;20733;-66
2021/05/11 04:39:38;;;;;;;;;;;23.40;52.40;;;;;;5029098;28;19970;-65
2021/05/11 04:42:04;;;;;;;;;;;23.40;52.60;;;;;;5035362;28;19929;-68
2021/05/11 04:44:32;;;;;;;;;;;23.40;52.60;;;;;;5026275;28;20008;-66
2021/05/11 04:47:01;;;;;;;;;;;23.40;52.70;;;;;;5024621;28;19923;-65
2021/05/11 04:49:26;;;;;;;;;;;23.40;52.60;;;;;;5007551;28;19952;-65
2021/05/11 04:51:52;;;;;;;;;;;23.40;52.70;;;;;;5002517;28;20306;-65
2021/05/11 04:54:17;;;;;;;;;;;23.40;52.70;;;;;;5025662;28;19978;-65
2021/05/11 04:56:45;;;;;;;;;;;23.40;52.70;;;;;;5012383;28;20400;-65
2021/05/11 04:59:11;;;;;;;;;;;23.40;52.60;;;;;;5023370;28;20001;-66
2021/05/11 05:01:36;;;;;;;;;;;23.40;52.40;;;;;;5020336;28;19967;-64
2021/05/11 05:04:02;;;;;;;;;;;23.40;52.80;;;;;;5022949;28;19952;-65
2021/05/11 05:06:28;;;;;;;;;;;23.40;52.70;;;;;;5031953;28;19924;-64
2021/05/11 05:08:53;;;;;;;;;;;23.40;52.80;;;;;;5022832;28;19917;-65
2021/05/11 05:11:19;;;;;;;;;;;23.40;52.80;;;;;;5019914;28;19925;-68
2021/05/11 05:13:45;;;;;;;;;;;23.40;52.90;;;;;;5025833;28;19924;-64
2021/05/11 05:16:10;;;;;;;;;;;23.40;52.90;;;;;;5019706;28;19963;-66
2021/05/11 05:18:35;;;;;;;;;;;23.40;52.90;;;;;;5015763;28;20016;-66
2021/05/11 05:21:05;;;;;;;;;;;23.40;53.10;;;;;;5025872;28;20391;-68
2021/05/11 05:23:35;;;;;;;;;;;23.40;53.30;;;;;;5020408;28;19921;-67
2021/05/11 05:26:06;;;;;;;;;;;23.40;53.30;;;;;;5025650;28;19928;-68
2021/05/11 05:28:35;;;;;;;;;;;23.40;53.20;;;;;;5025808;28;20020;-63
2021/05/11 05:31:02;;;;;;;;;;;23.40;53.30;;;;;;5017608;28;19918;-65
2021/05/11 05:33:31;;;;;;;;;;;23.40;53.30;;;;;;5026988;28;19918;-67
2021/05/11 05:35:56;;;;;;;;;;;23.40;53.30;;;;;;5006234;28;19996;-66
2021/05/11 05:38:21;;;;;;;;;;;23.30;53.30;;;;;;5014385;28;20583;-66
2021/05/11 05:40:54;;;;;;;;;;;23.40;53.30;;;;;;5031253;28;19949;-66
2021/05/11 05:43:19;;;;;;;;;;;23.40;53.40;;;;;;5028615;28;19970;-66
2021/05/11 05:45:45;;;;;;;;;;;23.40;53.40;;;;;;5031306;28;19925;-66
2021/05/11 05:48:10;;;;;;;;;;;23.40;53.50;;;;;;5025279;28;20403;-66
2021/05/11 05:50:36;;;;;;;;;;;23.40;53.40;;;;;;5043944;28;20398;-65
2021/05/11 05:53:04;;;;;;;;;;;23.40;53.30;;;;;;5040155;28;19924;-65
2021/05/11 05:55:29;;;;;;;;;;;23.40;53.20;;;;;;5043975;28;19940;-64
2021/05/11 05:57:56;;;;;;;;;;;23.40;53.30;;;;;;5030797;28;19968;-66
2021/05/11 06:00:22;;;;;;;;;;;23.40;53.40;;;;;;5035848;28;20378;-65
2021/05/11 06:02:51;;;;;;;;;;;23.40;53.30;;;;;;5040324;28;20004;-64
2021/05/11 06:05:16;;;;;;;;;;;23.40;53.30;;;;;;5017414;28;19913;-63
2021/05/11 06:07:42;;;;;;;;;;;23.40;53.50;;;;;;5038648;28;19913;-65
2021/05/11 06:10:08;;;;;;;;;;;23.40;53.70;;;;;;5039650;28;19951;-64
2021/05/11 06:12:40;;;;;;;;;;;23.40;53.70;;;;;;5018776;28;19913;-66
2021/05/11 06:17:34;;;;;;;;;;;23.40;54.00;;;;;;5042337;28;19923;-67
2021/05/11 06:19:59;;;;;;;;;;;23.40;53.90;;;;;;5035535;28;19913;-63
2021/05/11 06:22:24;;;;;;;;;;;23.40;54.00;;;;;;5040322;28;19928;-66
2021/05/11 06:24:50;;;;;;;;;;;23.40;53.90;;;;;;5042121;28;19920;-66
2021/05/11 06:27:15;;;;;;;;;;;23.50;54.10;;;;;;5032000;28;20288;-65
2021/05/11 06:29:43;;;;;;;;;;;23.40;53.80;;;;;;5046760;28;19913;-65
2021/05/11 06:32:08;;;;;;;;;;;23.40;53.80;;;;;;5038842;28;19941;-65
2021/05/11 06:34:34;;;;;;;;;;;23.40;53.70;;;;;;5038682;28;19935;-67
2021/05/11 06:36:59;;;;;;;;;;;23.40;53.60;;;;;;5047487;28;19913;-65
2021/05/11 06:39:25;;;;;;;;;;;23.50;53.70;;;;;;5035212;28;19972;-65
2021/05/11 06:41:52;;;;;;;;;;;23.40;53.60;;;;;;5043494;28;19995;-66
2021/05/11 06:44:45;;;;;;;;;;;23.40;53.50;;;;;;5039700;28;19921;-65
2021/05/11 06:50:10;;;;;;;;;;;23.40;53.60;;;;;;5029815;28;20007;-65
2021/05/11 06:52:52;;;;;;;;;;;23.40;53.50;;;;;;5029379;28;19913;-66
2021/05/11 06:55:19;;;;;;;;;;;23.40;53.50;;;;;;5032469;28;19924;-63
2021/05/11 06:57:44;;;;;;;;;;;23.40;53.60;;;;;;5041462;28;19945;-64
2021/05/11 07:00:10;;;;;;;;;;;23.40;53.50;;;;;;5042340;28;19939;-63
2021/05/11 07:02:35;;;;;;;;;;;23.40;53.60;;;;;;5037921;28;19923;-66
2021/05/11 07:05:01;;;;;;;;;;;23.40;53.50;;;;;;5018966;28;20116;-68
2021/05/11 07:07:27;;;;;;;;;;;23.40;53.40;;;;;;5033378;28;19913;-68
2021/05/11 07:15:03;;;;;;;;;;;23.40;53.40;;;;;;5041329;28;19963;-67
2021/05/11 07:17:28;;;;;;;;;;;23.40;53.40;;;;;;5042791;28;19921;-67
2021/05/11 07:19:54;;;;;;;;;;;23.40;53.40;;;;;;5035593;28;19913;-67
2021/05/11 07:22:20;;;;;;;;;;;23.40;53.40;;;;;;5016720;28;19952;-67
2021/05/11 07:24:48;;;;;;;;;;;23.40;53.40;;;;;;5030873;28;19959;-67
2021/05/11 07:29:57;;;;;;;;;;;23.40;53.40;;;;;;5040891;28;19920;-67
2021/05/11 07:32:23;;;;;;;;;;;23.40;53.50;;;;;;5044421;28;19994;-67
2021/05/11 07:34:52;;;;;;;;;;;23.40;53.50;;;;;;5037984;28;20400;-67
2021/05/11 07:37:17;;;;;;;;;;;23.40;53.50;;;;;;5041688;28;19921;-67
2021/05/11 07:39:46;;;;;;;;;;;23.40;53.50;;;;;;5036244;28;19920;-67
2021/05/11 07:42:11;;;;;;;;;;;23.40;53.60;;;;;;5034329;28;19999;-67
2021/05/11 07:44:41;;;;;;;;;;;23.40;53.60;;;;;;5039332;28;20048;-67
2021/05/11 07:50:02;;;;;;;;;;;23.40;53.60;;;;;;5035182;28;19912;-67
2021/05/11 08:16:33;;;;;;;;;;;23.50;53.60;;;;;;5030390;28;20165;-68
2021/05/11 08:29:23;;;;;;;;;;;23.40;53.70;;;;;;5026646;28;19947;-68
2021/05/11 08:31:49;;;;;;;;;;;23.40;53.70;;;;;;5032700;28;19917;-68
2021/05/11 08:34:14;;;;;;;;;;;23.50;53.60;;;;;;5020427;28;19919;-67
2021/05/11 08:36:40;;;;;;;;;;;23.40;53.70;;;;;;5039703;28;20418;-66
2021/05/11 08:39:05;;;;;;;;;;;23.50;53.60;;;;;;5044122;28;19913;-66
2021/05/11 08:41:31;;;;;;;;;;;23.50;53.60;;;;;;5038462;28;19995;-66
2021/05/11 08:43:56;;;;;;;;;;;23.50;53.50;;;;;;5029412;28;19917;-67
2021/05/11 08:46:22;;;;;;;;;;;23.50;53.60;;;;;;5022613;28;20006;-67
2021/05/11 08:48:49;;;;;;;;;;;23.40;53.50;;;;;;5028314;28;19928;-66
2021/05/11 08:51:40;;;;;;;;;;;23.50;53.60;;;;;;5026820;28;19913;-66
2021/05/11 09:07:53;;;;;;;;;;;23.50;53.50;;;;;;5035198;28;19967;-66
2021/05/11 09:15:58;;;;;;;;;;;23.50;53.40;;;;;;5019858;28;20431;-67
2021/05/11 10:11:33;;;;;;;;;;;23.40;53.40;;;;;;5010057;28;19919;-68
2021/05/11 10:47:01;;;;;;;;;;;23.40;53.30;;;;;;5040162;28;20406;-68
2021/05/11 10:49:26;;;;;;;;;;;23.40;53.40;;;;;;5036517;28;19913;-67
2021/05/11 10:52:09;;;;;;;;;;;23.40;53.40;;;;;;5039881;28;20064;-68
2021/05/11 10:54:36;;;;;;;;;;;23.40;53.40;;;;;;5036231;28;19913;-67
2021/05/11 10:57:03;;;;;;;;;;;23.40;53.40;;;;;;5040177;28;19913;-67
2021/05/11 11:02:03;;;;;;;;;;;23.40;53.40;;;;;;5034788;28;19955;-67
2021/05/11 11:04:32;;;;;;;;;;;23.50;53.40;;;;;;5035289;28;19913;-67
2021/05/11 11:07:01;;;;;;;;;;;23.40;53.30;;;;;;5017440;28;19914;-67
2021/05/11 11:09:27;;;;;;;;;;;23.40;53.40;;;;;;5036359;28;19920;-67
2021/05/11 11:11:52;;;;;;;;;;;23.40;53.40;;;;;;5032037;28;19925;-67
2021/05/11 11:14:17;;;;;;;;;;;23.40;53.50;;;;;;5043046;28;20463;-66
2021/05/11 11:16:43;;;;;;;;;;;23.40;53.40;;;;;;5026069;28;19917;-67
2021/05/11 11:19:09;;;;;;;;;;;23.40;53.40;;;;;;5021497;28;20565;-66
2021/05/11 11:24:28;;;;;;;;;;;23.40;53.30;;;;;;5026466;28;20014;-67
2021/05/11 11:26:54;;;;;;;;;;;23.40;53.30;;;;;;5023303;28;19995;-67
2021/05/11 11:29:20;;;;;;;;;;;23.40;53.30;;;;;;5028882;28;20047;-67
2021/05/11 11:31:46;;;;;;;;;;;23.40;53.30;;;;;;5043449;28;20724;-66
2021/05/11 11:34:35;;;;;;;;;;;23.40;53.30;;;;;;5035124;28;19912;-67
2021/05/11 11:37:03;;;;;;;;;;;23.40;53.30;;;;;;5002838;28;19913;-67
2021/05/11 11:39:32;;;;;;;;;;;23.40;53.40;;;;;;5038640;28;20560;-67
2021/05/11 11:41:58;;;;;;;;;;;23.40;53.30;;;;;;5015957;28;19917;-67
2021/05/11 11:44:24;;;;;;;;;;;23.40;53.30;;;;;;5043642;28;19944;-67
2021/05/11 11:46:58;;;;;;;;;;;23.40;53.40;;;;;;5029998;28;20003;-67
2021/05/11 11:49:24;;;;;;;;;;;23.40;53.40;;;;;;5032958;28;19913;-67
2021/05/11 11:52:03;;;;;;;;;;;23.40;53.30;;;;;;5023018;28;20002;-67
2021/05/11 11:54:34;;;;;;;;;;;23.40;53.30;;;;;;5031911;28;20034;-67
2021/05/11 11:59:34;;;;;;;;;;;23.40;53.30;;;;;;5037310;28;19920;-66
2021/05/11 12:02:00;;;;;;;;;;;23.40;53.30;;;;;;5035198;28;19914;-66
2021/05/11 12:04:26;;;;;;;;;;;23.40;53.30;;;;;;5026053;28;19916;-65
2021/05/11 12:06:52;;;;;;;;;;;23.40;53.40;;;;;;5037660;28;19917;-67
2021/05/11 12:09:23;;;;;;;;;;;23.40;53.20;;;;;;5032054;28;19917;-66
2021/05/11 12:11:48;;;;;;;;;;;23.40;53.30;;;;;;5025346;28;20039;-68
2021/05/11 12:14:14;;;;;;;;;;;23.40;53.20;;;;;;5035048;28;19944;-67
2021/05/11 12:16:43;;;;;;;;;;;23.40;53.30;;;;;;5016719;28;19928;-65
2021/05/11 12:19:12;;;;;;;;;;;23.40;53.30;;;;;;5016009;28;19917;-65
2021/05/11 12:21:53;;;;;;;;;;;23.40;53.30;;;;;;5014960;28;20654;-68
2021/05/11 12:24:22;;;;;;;;;;;23.40;53.30;;;;;;5031001;28;19971;-68
2021/05/11 12:26:48;;;;;;;;;;;23.40;53.30;;;;;;5033320;28;19913;-67
2021/05/11 12:29:14;;;;;;;;;;;23.40;53.30;;;;;;5040205;28;19920;-67
2021/05/11 12:31:40;;;;;;;;;;;23.40;53.50;;;;;;5037204;28;19935;-67
2021/05/11 12:34:06;;;;;;;;;;;23.40;53.30;;;;;;5028758;28;20449;-67
2021/05/11 12:36:37;;;;;;;;;;;23.40;53.40;;;;;;5009493;28;19982;-67
2021/05/11 12:39:17;;;;;;;;;;;23.40;53.10;;;;;;5038917;28;20007;-67
2021/05/11 12:41:43;;;;;;;;;;;23.50;53.30;;;;;;5015498;28;19913;-67
2021/05/11 12:44:12;;;;;;;;;;;23.50;53.30;;;;;;5041945;28;19923;-67
2021/05/11 12:46:37;;;;;;;;;;;23.40;53.20;;;;;;5020037;28;19926;-67
2021/05/11 12:49:03;;;;;;;;;;;23.40;53.30;;;;;;5025813;28;19913;-66
2021/05/11 12:51:33;;;;;;;;;;;23.40;53.20;;;;;;5031934;28;19924;-67
2021/05/11 12:54:01;;;;;;;;;;;23.40;53.30;;;;;;5031719;28;19917;-68
2021/05/11 12:59:23;;;;;;;;;;;23.40;53.40;;;;;;5034949;28;19999;-67
2021/05/11 13:01:57;;;;;;;;;;;23.40;53.40;;;;;;5017626;28;19923;-66
2021/05/11 13:15:27;;;;;;;;;;;23.40;53.30;;;;;;5031714;28;19924;-67
2021/05/11 13:30:48;;;;;;;;;;;23.50;53.30;;;;;;5030768;28;19913;-66
2021/05/11 13:33:24;;;;;;;;;;;23.50;53.50;;;;;;5036018;28;19913;-67
2021/05/11 13:35:50;;;;;;;;;;;23.50;53.40;;;;;;5019003;28;19948;-67
2021/05/11 13:38:15;;;;;;;;;;;23.50;53.40;;;;;;5034420;28;20393;-68
2021/05/11 13:40:41;;;;;;;;;;;23.50;53.40;;;;;;5042405;28;19919;-67
2021/05/11 13:43:06;;;;;;;;;;;23.50;53.40;;;;;;5034985;28;19917;-68
2021/05/11 13:45:31;;;;;;;;;;;23.50;53.40;;;;;;5023065;28;20408;-68
2021/05/11 13:48:06;;;;;;;;;;;23.50;53.40;;;;;;5023132;28;20288;-67
2021/05/11 13:53:06;;;;;;;;;;;23.50;53.30;;;;;;5018118;28;19967;-67
2021/05/11 13:55:49;;;;;;;;;;;23.50;53.30;;;;;;5033932;28;20395;-67
2021/05/11 14:03:42;;;;;;;;;;;23.50;53.50;;;;;;5015822;28;19924;-67
2021/05/11 14:06:08;;;;;;;;;;;23.50;53.50;;;;;;5033851;28;19921;-65
2021/05/11 14:08:33;;;;;;;;;;;23.50;53.50;;;;;;5028683;28;20008;-65
2021/05/11 14:10:59;;;;;;;;;;;23.50;53.40;;;;;;5004285;28;19936;-67
2021/05/11 14:13:24;;;;;;;;;;;23.50;53.40;;;;;;5041948;28;19920;-67
2021/05/11 14:15:50;;;;;;;;;;;23.50;53.40;;;;;;5015440;28;19913;-67
2021/05/11 14:18:15;;;;;;;;;;;23.50;53.40;;;;;;5029462;28;19921;-67
2021/05/11 14:20:41;;;;;;;;;;;23.60;53.40;;;;;;5031654;28;20376;-67
2021/05/11 14:23:06;;;;;;;;;;;23.50;53.30;;;;;;5027565;28;19921;-67
2021/05/11 14:25:31;;;;;;;;;;;23.50;53.40;;;;;;5045252;28;21676;-67
2021/05/11 14:27:57;;;;;;;;;;;23.50;53.40;;;;;;5044182;28;19917;-67
2021/05/11 14:30:22;;;;;;;;;;;23.50;53.50;;;;;;5034445;28;20347;-67
2021/05/11 14:32:48;;;;;;;;;;;23.50;53.50;;;;;;5029480;28;19948;-67
2021/05/11 14:35:13;;;;;;;;;;;23.50;53.40;;;;;;5037501;28;19920;-67
2021/05/11 14:37:39;;;;;;;;;;;23.60;53.40;;;;;;5037644;28;19917;-64
2021/05/11 14:40:04;;;;;;;;;;;23.50;53.50;;;;;;5032657;28;19928;-66
2021/05/11 14:42:30;;;;;;;;;;;23.50;53.40;;;;;;5038813;28;20399;-66
2021/05/11 14:44:55;;;;;;;;;;;23.50;53.40;;;;;;5038923;28;19913;-66
2021/05/11 14:47:21;;;;;;;;;;;23.50;53.40;;;;;;5024796;28;19921;-64
2021/05/11 14:49:46;;;;;;;;;;;23.60;53.40;;;;;;5025058;28;19924;-65
2021/05/11 14:52:12;;;;;;;;;;;23.60;53.40;;;;;;5015759;28;20469;-66
2021/05/11 14:54:38;;;;;;;;;;;23.50;53.50;;;;;;5040501;28;19956;-66
2021/05/11 14:57:04;;;;;;;;;;;23.60;53.50;;;;;;5032195;28;20426;-65
2021/05/11 14:59:29;;;;;;;;;;;23.60;53.40;;;;;;5036528;28;20024;-64
2021/05/11 15:01:54;;;;;;;;;;;23.60;53.50;;;;;;5035636;28;19961;-66
2021/05/11 15:04:20;;;;;;;;;;;23.60;53.40;;;;;;5036351;28;19920;-65
2021/05/11 15:06:45;;;;;;;;;;;23.60;53.50;;;;;;5032299;28;20012;-67
2021/05/11 15:09:12;;;;;;;;;;;23.60;53.40;;;;;;5031851;28;19912;-66
2021/05/11 15:11:37;;;;;;;;;;;23.60;53.60;;;;;;5036296;28;20386;-67
2021/05/11 15:14:03;;;;;;;;;;;23.60;53.60;;;;;;5016364;28;19920;-67
2021/05/11 15:16:31;;;;;;;;;;;23.60;53.50;;;;;;5037705;28;20457;-64
2021/05/11 15:18:56;;;;;;;;;;;23.60;53.60;;;;;;5033578;28;19974;-67
2021/05/11 15:21:22;;;;;;;;;;;23.60;53.40;;;;;;5043898;28;19943;-67
2021/05/11 15:23:47;;;;;;;;;;;23.60;53.40;;;;;;5040183;28;19960;-67
2021/05/11 15:26:13;;;;;;;;;;;23.60;53.60;;;;;;5035900;28;19927;-67
2021/05/11 15:28:39;;;;;;;;;;;23.60;53.50;;;;;;5027573;28;19913;-67
2021/05/11 15:31:04;;;;;;;;;;;23.60;53.40;;;;;;5034382;28;19920;-67
2021/05/11 15:33:30;;;;;;;;;;;23.60;54.00;;;;;;5042042;28;19913;-67
2021/05/11 15:35:55;;;;;;;;;;;23.60;53.30;;;;;;5037699;28;19913;-66
2021/05/11 15:38:21;;;;;;;;;;;23.60;53.40;;;;;;5029102;28;19913;-66
2021/05/11 15:40:46;;;;;;;;;;;23.60;53.40;;;;;;5039063;28;19913;-66
2021/05/11 15:43:12;;;;;;;;;;;23.60;53.40;;;;;;5036016;28;20011;-67
2021/05/11 15:45:37;;;;;;;;;;;23.60;53.40;;;;;;5027856;28;19962;-66
2021/05/11 15:48:06;;;;;;;;;;;23.60;53.40;;;;;;5034371;28;19932;-67
2021/05/11 15:50:38;;;;;;;;;;;23.60;53.60;;;;;;5041082;28;19920;-67
2021/05/11 15:53:05;;;;;;;;;;;23.60;53.50;;;;;;5044682;28;19912;-67
2021/05/11 15:55:30;;;;;;;;;;;23.60;53.50;;;;;;5044298;28;20861;-66
2021/05/11 15:57:56;;;;;;;;;;;23.60;53.50;;;;;;5043615;28;19909;-65
2021/05/11 16:00:22;;;;;;;;;;;23.60;53.50;;;;;;5018914;28;19916;-67
2021/05/11 16:02:47;;;;;;;;;;;23.70;53.40;;;;;;5044392;28;19916;-67
2021/05/11 16:05:13;;;;;;;;;;;23.70;53.40;;;;;;5026741;28;19970;-67
2021/05/11 16:07:38;;;;;;;;;;;23.70;53.40;;;;;;5038172;28;19992;-67
2021/05/11 16:10:04;;;;;;;;;;;23.60;53.50;;;;;;5031076;28;19920;-67
2021/05/11 16:12:31;;;;;;;;;;;23.60;53.40;;;;;;5040239;28;19909;-68
2021/05/11 16:14:56;;;;;;;;;;;23.70;53.50;;;;;;5033204;28;19995;-67
2021/05/11 16:17:22;;;;;;;;;;;23.70;53.50;;;;;;5037169;28;20052;-65
2021/05/11 16:19:48;;;;;;;;;;;23.70;53.40;;;;;;5032748;28;20568;-67
2021/05/11 16:22:13;;;;;;;;;;;23.70;53.50;;;;;;5034384;28;19909;-67
2021/05/11 16:24:39;;;;;;;;;;;23.70;53.40;;;;;;5035908;28;19917;-67
2021/05/11 16:27:05;;;;;;;;;;;23.70;53.50;;;;;;5031972;28;19909;-67
2021/05/11 16:29:30;;;;;;;;;;;23.70;53.50;;;;;;5033063;28;19921;-67
2021/05/11 16:31:58;;;;;;;;;;;23.70;53.50;;;;;;5006533;28;20599;-66
2021/05/11 16:34:23;;;;;;;;;;;23.70;53.60;;;;;;5032439;28;19909;-67
2021/05/11 16:36:49;;;;;;;;;;;23.70;53.40;;;;;;5020836;28;19932;-67
2021/05/11 16:39:14;;;;;;;;;;;23.70;53.60;;;;;;4995791;28;19913;-68
2021/05/11 16:41:40;;;;;;;;;;;23.70;53.40;;;;;;5017266;28;19914;-68
2021/05/11 16:44:06;;;;;;;;;;;23.70;53.50;;;;;;5007852;28;19925;-66
2021/05/11 16:46:32;;;;;;;;;;;23.70;53.60;;;;;;5021467;28;20613;-65
2021/05/11 16:48:58;;;;;;;;;;;23.70;53.60;;;;;;5002434;28;20007;-68
2021/05/11 16:51:23;;;;;;;;;;;23.80;53.60;;;;;;5007906;28;20380;-67
2021/05/11 16:53:49;;;;;;;;;;;23.70;53.50;;;;;;5023244;28;19913;-66
2021/05/11 16:56:14;;;;;;;;;;;23.80;53.60;;;;;;5024118;28;19924;-65
2021/05/11 16:58:39;;;;;;;;;;;23.70;53.50;;;;;;5029776;28;19920;-65
2021/05/11 17:01:05;;;;;;;;;;;23.80;53.60;;;;;;5027189;28;19919;-67
2021/05/11 17:03:30;;;;;;;;;;;23.80;53.70;;;;;;5008490;28;19976;-67
2021/05/11 17:05:56;;;;;;;;;;;23.80;53.80;;;;;;5006855;28;20337;-66
2021/05/11 17:08:21;;;;;;;;;;;23.80;53.70;;;;;;5020834;28;19925;-67
2021/05/11 17:10:47;;;;;;;;;;;23.80;53.60;;;;;;5020874;28;19983;-67
2021/05/11 17:13:12;;;;;;;;;;;23.80;53.60;;;;;;5022569;28;19964;-67
2021/05/11 17:15:38;;;;;;;;;;;23.80;53.60;;;;;;5024862;28;19917;-67
2021/05/11 17:18:04;;;;;;;;;;;23.80;53.70;;;;;;5038391;28;19927;-69
2021/05/11 17:20:30;;;;;;;;;;;23.80;53.60;;;;;;5026545;28;20311;-67
2021/05/11 17:22:56;;;;;;;;;;;23.70;53.60;;;;;;5025010;28;19967;-65
2021/05/11 17:25:21;;;;;;;;;;;23.80;53.80;;;;;;5002920;28;20338;-67
2021/05/11 17:27:48;;;;;;;;;;;23.80;53.60;;;;;;5014337;28;19921;-66
2021/05/11 17:30:13;;;;;;;;;;;23.80;53.80;;;;;;5005641;28;19919;-65
2021/05/11 17:32:40;;;;;;;;;;;23.80;53.60;;;;;;5007759;28;19921;-67
2021/05/11 17:35:05;;;;;;;;;;;23.80;53.70;;;;;;4990855;28;20011;-67
2021/05/11 17:37:31;;;;;;;;;;;23.80;53.70;;;;;;4980935;28;20021;-67
2021/05/11 17:39:56;;;;;;;;;;;23.80;53.60;;;;;;5024516;28;19929;-67
2021/05/11 17:42:22;;;;;;;;;;;23.80;54.30;;;;;;5026076;28;19921;-67
2021/05/11 17:44:47;;;;;;;;;;;23.80;53.60;;;;;;5023817;28;19967;-67
2021/05/11 17:47:13;;;;;;;;;;;23.80;53.70;;;;;;5019003;28;20592;-67
2021/05/11 17:49:39;;;;;;;;;;;23.80;53.70;;;;;;5025102;28;20004;-66
2021/05/11 17:52:05;;;;;;;;;;;23.80;53.60;;;;;;5014865;28;20331;-66
2021/05/11 17:54:30;;;;;;;;;;;23.80;53.80;;;;;;5027962;28;20323;-68
2021/05/11 17:56:55;;;;;;;;;;;23.80;53.90;;;;;;5028960;28;20381;-67
2021/05/11 17:59:21;;;;;;;;;;;23.80;53.80;;;;;;5028881;28;19920;-67
2021/05/11 18:01:46;;;;;;;;;;;23.80;53.70;;;;;;5026024;28;20130;-67
2021/05/11 18:04:12;;;;;;;;;;;23.80;53.60;;;;;;5035140;28;19916;-67
2021/05/11 18:06:37;;;;;;;;;;;23.80;53.70;;;;;;5032646;28;19917;-67
2021/05/11 18:09:03;;;;;;;;;;;23.80;53.70;;;;;;5027675;28;19925;-67
2021/05/11 18:11:28;;;;;;;;;;;23.80;53.70;;;;;;5033253;28;19913;-68
2021/05/11 18:13:55;;;;;;;;;;;23.80;53.70;;;;;;5036787;28;22258;-67
2021/05/11 18:16:21;;;;;;;;;;;23.80;53.70;;;;;;5027648;28;19924;-67
2021/05/11 18:18:46;;;;;;;;;;;23.80;53.80;;;;;;5023911;28;19917;-65
2021/05/11 18:21:12;;;;;;;;;;;23.80;53.60;;;;;;5021937;28;19967;-63